Date,TemperatureHighF,TemperatureAvgF,TemperatureLowF,DewpointHighF,DewpointAvgF,DewpointLowF,HumidityHigh,HumidityAvg,HumidityLow,PressureMaxIn,PressureMinIn,WindSpeedMaxMPH,WindSpeedAvgMPH,GustSpeedMaxMPH,PrecipitationSumIn
2013-2-1,43.7,28.9,19.6,19.7,3.0,-9.6,59,35,19,30.54,30.29,12,2,12,0.00
2013-2-2,52.7,37.1,22.5,36.7,24.0,6.3,81,60,42,30.30,30.13,11,2,11,0.00
2013-2-3,54.9,44.8,34.2,32.5,26.3,16.7,77,51,28,30.20,30.11,18,4,18,0.00
2013-2-4,57.4,45.9,34.9,41.5,31.8,22.3,84,60,32,30.08,29.90,12,2,12,0.00
2013-2-5,64.0,51.3,41.2,49.0,42.4,34.6,90,74,42,30.06,29.92,7,1,7,0.00
2013-2-6,65.5,53.4,36.0,48.7,41.9,31.8,96,68,47,30.20,30.04,8,1,8,0.00
2013-2-7,70.5,61.0,52.3,52.1,48.7,40.4,86,65,48,29.97,29.87,8,2,8,0.00
2013-2-8,56.5,45.1,30.4,55.0,38.2,22.9,96,77,59,30.30,29.89,12,2,12,0.00
2013-2-9,55.6,42.0,25.9,38.3,31.2,20.2,88,67,45,30.31,30.04,9,2,9,0.00
2013-2-10,59.9,55.2,50.7,56.2,47.6,34.6,96,77,50,30.04,29.76,16,5,16,0.00
2013-2-11,61.7,50.5,43.5,53.5,33.2,25.7,91,53,28,30.21,29.96,7,1,7,0.00
2013-2-12,53.2,45.5,36.5,40.0,34.8,29.3,80,67,50,30.15,29.79,16,1,16,0.00
2013-2-13,45.1,40.1,35.8,40.1,36.4,31.6,94,87,75,30.03,29.77,8,2,8,0.00
2013-2-14,61.2,46.5,34.3,42.0,34.5,30.3,93,67,34,30.07,29.99,11,2,11,0.00
2013-2-15,56.1,44.8,32.5,37.3,28.8,19.9,80,56,30,30.20,30.05,12,2,12,0.00
2013-2-16,40.3,32.1,23.2,23.7,14.6,6.0,65,49,28,30.27,30.19,12,2,12,0.00
2013-2-17,59.4,42.6,27.7,27.3,21.2,13.6,57,44,26,30.25,30.07,12,2,12,0.00
2013-2-18,57.9,51.1,44.2,51.1,40.9,27.9,92,69,51,30.09,29.76,23,5,23,0.00
2013-2-19,50.4,40.7,29.3,40.1,23.7,5.6,79,53,19,30.27,29.96,19,4,19,0.00
2013-2-20,40.8,32.7,27.7,21.9,15.5,9.3,67,50,37,30.34,30.17,7,1,7,0.00
2013-2-21,45.3,37.8,31.3,44.2,31.1,21.7,96,77,52,30.18,29.74,13,4,13,0.00
2013-2-22,50.5,40.4,35.1,41.9,36.3,31.3,96,86,64,30.09,29.87,8,1,8,0.00
2013-2-23,53.8,38.5,27.9,32.8,26.6,22.3,83,64,37,30.06,29.94,8,1,8,0.00
2013-2-24,69.4,45.1,27.0,35.7,27.6,19.6,82,54,25,30.09,29.89,9,2,9,0.00
2013-2-25,64.2,51.3,39.4,54.2,38.0,24.4,96,62,42,29.90,29.31,21,6,21,0.00
2013-2-26,53.2,43.8,39.7,50.6,36.4,30.5,92,75,63,29.83,29.34,17,6,17,0.00
2013-2-27,45.5,41.3,38.3,33.2,30.5,26.0,72,65,57,29.98,29.83,13,5,13,0.00
2013-2-28,41.9,37.5,32.9,26.5,24.4,22.1,69,59,50,30.11,29.97,10,3,10,0.00